Purerua, New Zealand
Current Conditions -  °F | °C
As of 2:30 AM on Friday 31 Oct 2014 (Local Time) from NZAA Reporting Station
Broken Clouds Broken Clouds  
Wind Chill: 55°   Ceiling: 4200
Heat Index: 55°   Visibility: 6mi
Dew Point: 48°   Wind: 12mph
Humidity: 77%   Direction: 260°W
Pressure: 29.91"   Gusts: NA
Location:  35.15°S, 174.04°E
Report Text: NZAA 301430Z AUTO 26010KT 9999 BKN042/// 13/09 Q1013 NOSIG
Loading
Personal Weather Stations






























Interactive Weather Map
Tropical Storm Tracking
New forecast layout! Learn more

10-Day Weather Forecast

Advertisements
Track Severe Weather on mobile